createdAt,value
2022-10-20T00:00:11.445Z,28.80
2022-10-20T00:03:17.083Z,26.80
2022-10-20T00:05:50.741Z,30.45
2022-10-20T00:08:26.545Z,25.30
2022-10-20T00:10:57.127Z,21.42
2022-10-20T00:13:26.164Z,19.15
2022-10-20T00:15:58.389Z,16.98
2022-10-20T00:18:28.553Z,21.08
2022-10-20T00:20:57.018Z,23.98
2022-10-20T00:23:26.782Z,28.50
2022-10-20T00:26:13.389Z,24.48
2022-10-20T00:28:42.451Z,14.90
2022-10-20T00:31:13.249Z,16.00
2022-10-20T00:33:48.864Z,17.13
2022-10-20T00:36:29.810Z,16.70
2022-10-20T00:39:04.661Z,16.55
2022-10-20T00:41:45.204Z,15.27
2022-10-20T00:44:52.287Z,64.05
2022-10-20T00:47:38.009Z,41.60
2022-10-20T00:50:18.763Z,22.60
2022-10-20T00:52:50.594Z,31.08
2022-10-20T00:55:23.731Z,31.25
2022-10-20T00:58:02.274Z,23.02
2022-10-20T01:00:33.700Z,27.85
2022-10-20T01:03:18.428Z,26.95
2022-10-20T01:05:47.248Z,30.25
2022-10-20T01:08:18.657Z,31.58
2022-10-20T01:10:58.907Z,30.63
2022-10-20T01:14:02.742Z,23.15
2022-10-20T01:16:43.351Z,35.63
2022-10-20T01:19:20.341Z,39.55
2022-10-20T01:22:10.784Z,32.50
2022-10-20T01:24:46.243Z,36.22
2022-10-20T01:27:22.419Z,22.52
2022-10-20T01:30:12.598Z,42.60
2022-10-20T01:32:55.575Z,25.95
2022-10-20T01:35:25.383Z,21.45
2022-10-20T01:38:15.336Z,20.33
2022-10-20T01:40:59.523Z,25.35
2022-10-20T01:43:29.542Z,21.95
2022-10-20T01:46:07.720Z,18.27
2022-10-20T01:48:38.937Z,16.70
2022-10-20T01:51:11.195Z,13.40
2022-10-20T01:53:49.048Z,12.60
2022-10-20T01:56:22.287Z,10.40
2022-10-20T01:59:05.540Z,10.73
2022-10-20T02:01:52.549Z,12.18
2022-10-20T02:04:31.947Z,32.13
2022-10-20T02:07:07.449Z,35.63
2022-10-20T02:09:40.673Z,27.85
2022-10-20T02:12:18.654Z,24.90
2022-10-20T02:14:51.211Z,20.85
2022-10-20T02:17:21.836Z,17.77
2022-10-20T02:19:57.206Z,13.80
2022-10-20T02:22:28.705Z,17.77
2022-10-20T02:25:18.261Z,20.08
2022-10-20T02:27:49.393Z,20.80
2022-10-20T02:30:20.454Z,21.00
2022-10-20T02:33:04.335Z,22.95
2022-10-20T02:35:39.226Z,57.15
2022-10-20T02:38:08.148Z,27.27
2022-10-20T02:40:45.198Z,30.58
2022-10-20T02:43:16.486Z,36.78
2022-10-20T02:45:46.944Z,36.47
2022-10-20T02:48:15.788Z,28.40
2022-10-20T02:50:46.399Z,22.95
2022-10-20T02:53:22.741Z,25.10
2022-10-20T02:55:59.104Z,21.65
2022-10-20T02:58:30.404Z,19.05
2022-10-20T03:01:00.052Z,18.00
2022-10-20T03:06:13.616Z,60.00
2022-10-20T03:08:42.763Z,31.95
2022-10-20T03:11:12.430Z,32.08
2022-10-20T03:13:45.434Z,18.63
2022-10-20T03:16:16.386Z,19.20
2022-10-20T03:18:46.420Z,19.50
2022-10-20T03:21:16.427Z,18.08
2022-10-20T03:23:45.770Z,22.15
2022-10-20T03:26:14.467Z,30.15
2022-10-20T03:28:46.079Z,18.83
2022-10-20T03:31:15.874Z,32.42
2022-10-20T03:33:46.046Z,24.55
2022-10-20T03:36:15.608Z,38.17
2022-10-20T03:38:46.425Z,50.13
2022-10-20T03:41:22.185Z,50.55
2022-10-20T03:43:57.410Z,55.72
2022-10-20T03:46:27.348Z,56.50
2022-10-20T03:48:57.533Z,37.40
2022-10-20T03:51:29.028Z,26.88
2022-10-20T03:54:02.119Z,29.98
2022-10-20T03:56:32.092Z,32.03
2022-10-20T04:01:42.830Z,26.90
2022-10-20T04:04:14.238Z,22.10
2022-10-20T04:06:43.164Z,24.35
2022-10-20T04:09:13.971Z,31.15
2022-10-20T04:11:50.873Z,29.77
2022-10-20T04:14:26.424Z,30.17
2022-10-20T04:16:55.216Z,31.73
2022-10-20T04:22:14.424Z,19.80
2022-10-20T04:24:43.861Z,20.60
2022-10-20T04:27:13.558Z,19.60
2022-10-20T04:29:42.686Z,18.63
2022-10-20T04:32:13.731Z,24.58
2022-10-20T04:34:49.744Z,23.27
2022-10-20T04:37:23.039Z,32.08
2022-10-20T04:39:52.206Z,29.65
2022-10-20T04:42:22.423Z,35.20
2022-10-20T04:45:03.107Z,21.27
2022-10-20T04:47:36.239Z,31.60
2022-10-20T04:50:24.849Z,27.35
2022-10-20T04:53:09.423Z,31.67
2022-10-20T04:56:00.683Z,35.33
2022-10-20T04:58:38.014Z,26.55
2022-10-20T05:01:08.695Z,23.20
2022-10-20T05:03:50.246Z,26.45
2022-10-20T05:06:23.129Z,31.08
2022-10-20T05:11:44.785Z,22.48
2022-10-20T05:14:16.701Z,37.22
2022-10-20T05:16:47.807Z,45.08
2022-10-20T05:19:17.646Z,45.88
2022-10-20T05:21:50.591Z,41.03
2022-10-20T05:24:30.164Z,64.80
2022-10-20T05:27:03.541Z,49.30
2022-10-20T05:29:34.540Z,45.40
2022-10-20T05:32:04.657Z,51.67
2022-10-20T05:34:34.524Z,60.88
2022-10-20T05:37:09.753Z,52.08
2022-10-20T05:39:40.098Z,47.13
2022-10-20T05:42:15.028Z,46.38
2022-10-20T05:44:53.556Z,62.47
2022-10-20T05:47:23.404Z,61.70
2022-10-20T05:49:52.579Z,69.05
2022-10-20T05:52:22.733Z,77.85
2022-10-20T05:55:00.793Z,70.60
2022-10-20T05:57:38.609Z,73.97
2022-10-20T06:00:12.669Z,91.50
2022-10-20T06:02:46.443Z,101.55
2022-10-20T06:05:14.796Z,96.68
2022-10-20T06:07:52.109Z,82.10
2022-10-20T06:10:26.333Z,64.85
2022-10-20T06:12:55.485Z,57.83
2022-10-20T06:15:25.025Z,53.72
2022-10-20T06:18:02.227Z,41.25
2022-10-20T06:20:31.154Z,36.42
2022-10-20T06:23:02.320Z,42.63
2022-10-20T06:25:34.320Z,55.80
2022-10-20T06:28:04.791Z,38.40
2022-10-20T06:30:36.825Z,37.95
2022-10-20T06:33:08.781Z,55.47
2022-10-20T06:35:37.966Z,41.90
2022-10-20T06:38:10.187Z,43.15
2022-10-20T06:40:41.614Z,39.78
2022-10-20T06:43:28.490Z,47.20
2022-10-20T06:46:02.581Z,44.35
2022-10-20T06:48:32.965Z,40.90
2022-10-20T06:51:05.902Z,32.17
2022-10-20T06:53:36.857Z,30.52
2022-10-20T06:56:12.091Z,39.40
2022-10-20T06:58:43.073Z,39.27
2022-10-20T07:01:38.363Z,20.67
2022-10-20T07:04:14.668Z,13.13
2022-10-20T07:06:46.786Z,10.38
2022-10-20T07:09:22.021Z,13.35
2022-10-20T07:11:56.134Z,23.77
2022-10-20T07:14:58.941Z,32.65
2022-10-20T07:17:27.878Z,20.77
2022-10-20T07:19:57.775Z,22.88
2022-10-20T07:22:34.053Z,29.65
2022-10-20T07:25:06.966Z,25.42
2022-10-20T07:27:43.179Z,21.55
2022-10-20T07:32:49.304Z,42.22
2022-10-20T07:35:19.426Z,92.72
2022-10-20T07:37:48.796Z,31.30
2022-10-20T07:40:20.326Z,22.40
2022-10-20T07:42:49.003Z,66.28
2022-10-20T07:45:32.760Z,87.10
2022-10-20T07:48:04.793Z,81.55
2022-10-20T07:51:04.637Z,21.10
2022-10-20T07:53:47.775Z,68.60
2022-10-20T07:56:21.138Z,33.88
2022-10-20T07:58:57.921Z,34.03
2022-10-20T08:01:37.308Z,31.98
2022-10-20T08:04:06.489Z,42.80
2022-10-20T08:06:35.234Z,31.00
2022-10-20T08:09:06.667Z,29.05
2022-10-20T08:11:36.880Z,25.95
2022-10-20T08:14:06.063Z,23.77
2022-10-20T08:16:41.796Z,20.27
2022-10-20T08:19:23.031Z,11.45
2022-10-20T08:21:54.182Z,15.02
2022-10-20T08:24:30.045Z,29.00
2022-10-20T08:27:01.811Z,21.48
2022-10-20T08:29:35.707Z,29.35
2022-10-20T08:32:06.050Z,21.90
2022-10-20T08:34:34.405Z,19.95
2022-10-20T08:37:06.595Z,18.77
2022-10-20T08:39:37.207Z,13.70
2022-10-20T08:42:09.961Z,10.82
2022-10-20T08:44:41.803Z,13.75
2022-10-20T08:47:33.654Z,13.07
2022-10-20T08:50:07.817Z,24.50
2022-10-20T08:52:37.269Z,20.20
2022-10-20T08:55:06.636Z,15.07
2022-10-20T08:57:38.720Z,11.25
2022-10-20T09:00:33.763Z,12.00
2022-10-20T09:03:24.512Z,7.75
2022-10-20T09:05:59.424Z,11.25
2022-10-20T09:08:38.496Z,8.52
2022-10-20T09:11:14.292Z,11.68
2022-10-20T09:16:42.004Z,28.80
2022-10-20T09:19:22.643Z,8.75
2022-10-20T09:21:56.170Z,37.70
2022-10-20T09:24:28.456Z,10.00
2022-10-20T09:26:59.810Z,9.60
2022-10-20T09:29:37.473Z,8.90
2022-10-20T09:35:13.103Z,7.95
2022-10-20T09:37:42.179Z,6.85
2022-10-20T09:43:03.795Z,4.88
2022-10-20T09:45:34.257Z,7.82
2022-10-20T09:48:05.843Z,12.30
2022-10-20T09:50:36.968Z,8.77
2022-10-20T09:53:07.664Z,8.73
2022-10-20T09:55:42.341Z,9.50
2022-10-20T09:58:26.472Z,13.43
2022-10-20T10:01:04.488Z,9.10
2022-10-20T10:03:44.945Z,6.15
2022-10-20T10:06:32.339Z,8.57
2022-10-20T10:09:02.245Z,10.60
2022-10-20T10:11:36.616Z,8.60
2022-10-20T10:14:05.874Z,5.07
2022-10-20T10:16:41.846Z,5.78
2022-10-20T10:19:19.103Z,6.28
2022-10-20T10:21:49.531Z,8.88
2022-10-20T10:24:30.167Z,4.95
2022-10-20T10:26:59.588Z,5.40
2022-10-20T10:29:37.578Z,7.70
2022-10-20T10:32:19.860Z,5.15
2022-10-20T10:35:03.926Z,3.70
2022-10-20T10:37:35.005Z,7.47
2022-10-20T10:40:19.003Z,14.10
2022-10-20T10:43:12.944Z,4.55
2022-10-20T10:45:49.215Z,7.30
2022-10-20T10:50:58.925Z,6.82
2022-10-20T10:54:11.917Z,7.13
2022-10-20T10:56:57.786Z,3.75
2022-10-20T10:59:33.812Z,11.55
2022-10-20T11:02:16.049Z,13.43
2022-10-20T11:05:10.642Z,5.13
2022-10-20T11:07:48.990Z,1.05
2022-10-20T11:10:32.640Z,7.85
2022-10-20T11:13:04.896Z,6.57
2022-10-20T11:15:39.477Z,9.25
2022-10-20T11:18:21.399Z,3.97
2022-10-20T11:20:57.971Z,3.45
2022-10-20T11:26:02.706Z,1.77
2022-10-20T11:28:35.905Z,1.95
2022-10-20T11:31:05.668Z,1.88
2022-10-20T11:33:44.034Z,3.30
2022-10-20T11:36:19.788Z,2.25
2022-10-20T11:38:52.118Z,9.65
2022-10-20T11:41:39.639Z,8.90
2022-10-20T11:44:13.675Z,5.00
2022-10-20T11:46:45.828Z,6.45
2022-10-20T11:49:16.830Z,3.25
2022-10-20T11:51:52.693Z,2.42
2022-10-20T11:54:44.652Z,3.38
2022-10-20T11:57:27.162Z,19.40
2022-10-20T12:00:14.976Z,4.78
2022-10-20T12:03:04.316Z,3.65
2022-10-20T12:05:36.588Z,4.88
2022-10-20T12:08:29.413Z,6.18
2022-10-20T12:11:24.588Z,32.92
2022-10-20T12:13:54.067Z,2.97
2022-10-20T12:16:43.694Z,2.85
2022-10-20T12:19:20.252Z,2.60
2022-10-20T12:22:18.523Z,9.80
2022-10-20T12:24:55.751Z,2.55
2022-10-20T12:27:31.591Z,4.28
2022-10-20T12:30:28.005Z,5.40
2022-10-20T12:33:15.645Z,6.72
2022-10-20T12:36:00.773Z,5.03
2022-10-20T12:38:29.731Z,7.35
2022-10-20T12:41:00.767Z,11.40
2022-10-20T12:43:49.730Z,3.72
2022-10-20T12:46:27.303Z,5.18
2022-10-20T12:49:00.295Z,9.63
2022-10-20T12:51:40.960Z,5.57
2022-10-20T12:54:19.942Z,3.38
2022-10-20T12:56:52.486Z,5.10
2022-10-20T12:59:44.303Z,3.95
2022-10-20T13:02:24.994Z,5.80
2022-10-20T13:04:58.468Z,4.88
2022-10-20T13:07:46.000Z,11.55
2022-10-20T13:10:24.719Z,10.13
2022-10-20T13:13:06.084Z,12.90
2022-10-20T13:15:43.093Z,12.35
2022-10-20T13:18:13.544Z,18.98
2022-10-20T13:21:05.301Z,12.52
2022-10-20T13:23:52.779Z,5.55
2022-10-20T13:26:59.379Z,28.23
2022-10-20T13:29:31.883Z,12.38
2022-10-20T13:32:14.270Z,42.53
2022-10-20T13:35:05.673Z,46.80
2022-10-20T13:37:52.737Z,26.13
2022-10-20T13:40:24.038Z,29.23
2022-10-20T13:43:21.656Z,12.27
2022-10-20T13:46:08.806Z,13.57
2022-10-20T13:48:51.932Z,16.20
2022-10-20T13:51:50.220Z,8.63
2022-10-20T13:54:27.405Z,8.23
2022-10-20T14:00:05.957Z,9.07
2022-10-20T14:02:36.406Z,7.18
2022-10-20T14:05:15.821Z,10.13
2022-10-20T14:07:46.906Z,8.40
2022-10-20T14:10:44.274Z,7.38
2022-10-20T14:13:25.321Z,9.77
2022-10-20T14:16:03.120Z,5.85
2022-10-20T14:18:41.222Z,7.93
2022-10-20T14:21:17.147Z,8.30
2022-10-20T14:23:48.846Z,7.68
2022-10-20T14:26:22.862Z,21.08
2022-10-20T14:28:52.361Z,19.13
2022-10-20T14:31:23.166Z,24.52
2022-10-20T14:33:52.848Z,27.95
2022-10-20T14:36:28.978Z,28.33
2022-10-20T14:39:02.182Z,40.40
2022-10-20T14:41:43.596Z,44.22
2022-10-20T14:44:43.065Z,19.47
2022-10-20T14:47:15.557Z,17.92
2022-10-20T14:50:09.594Z,23.85
2022-10-20T14:52:42.155Z,19.73
2022-10-20T14:55:32.806Z,34.33
2022-10-20T14:58:16.211Z,45.80
2022-10-20T15:00:45.272Z,50.35
2022-10-20T15:03:17.377Z,54.05
2022-10-20T15:05:47.525Z,44.55
2022-10-20T15:08:25.219Z,31.30
2022-10-20T15:10:55.906Z,33.47
2022-10-20T15:13:31.021Z,35.60
2022-10-20T15:16:03.505Z,59.17
2022-10-20T15:18:36.399Z,64.38
2022-10-20T15:21:08.657Z,38.53
2022-10-20T15:23:37.110Z,30.40
2022-10-20T15:26:16.709Z,29.30
2022-10-20T15:28:53.036Z,141.40
2022-10-20T15:34:09.912Z,60.17
2022-10-20T15:36:41.970Z,47.03
2022-10-20T15:39:12.950Z,158.23
2022-10-20T15:41:41.750Z,96.40
2022-10-20T15:44:23.885Z,81.85
2022-10-20T15:46:55.592Z,76.82
2022-10-20T15:49:25.866Z,74.13
2022-10-20T15:51:54.595Z,82.55
2022-10-20T15:54:28.801Z,85.60
2022-10-20T15:57:00.450Z,128.43
2022-10-20T15:59:30.785Z,184.02
2022-10-20T16:02:00.140Z,135.30
2022-10-20T16:04:30.342Z,113.18
2022-10-20T16:07:02.619Z,99.55
2022-10-20T16:09:31.371Z,47.88
2022-10-20T16:14:44.257Z,123.30
2022-10-20T16:17:14.993Z,205.73
2022-10-20T16:19:45.827Z,192.07
2022-10-20T16:22:14.150Z,182.65
2022-10-20T16:24:49.036Z,163.32
2022-10-20T16:27:19.196Z,182.27
2022-10-20T16:29:52.936Z,154.30
2022-10-20T16:32:32.765Z,132.63
2022-10-20T16:38:06.972Z,159.63
2022-10-20T16:40:46.521Z,107.47
2022-10-20T16:46:07.937Z,87.55
2022-10-20T16:48:47.598Z,99.18
2022-10-20T16:51:18.585Z,126.80
2022-10-20T16:53:49.949Z,146.43
2022-10-20T16:56:21.032Z,93.20
2022-10-20T16:58:52.411Z,160.95
2022-10-20T17:01:48.551Z,89.45
2022-10-20T17:04:17.910Z,631.20
2022-10-20T17:06:48.779Z,151.93
2022-10-20T17:09:26.296Z,373.48
2022-10-20T17:11:57.295Z,181.60
2022-10-20T17:14:26.471Z,172.98
2022-10-20T17:16:56.056Z,381.00
2022-10-20T17:25:46.177Z,68.60
2022-10-20T17:28:16.446Z,93.43
2022-10-20T17:30:47.414Z,77.20
2022-10-20T17:33:16.409Z,123.70
2022-10-20T17:36:02.199Z,66.63
2022-10-20T17:38:32.233Z,82.70
2022-10-20T17:41:11.100Z,65.32
2022-10-20T17:43:45.708Z,116.50
2022-10-20T17:46:20.920Z,218.02
2022-10-20T17:49:07.816Z,98.20
2022-10-20T17:51:52.361Z,125.65
2022-10-20T17:59:16.973Z,152.57
2022-10-20T18:01:46.405Z,123.80
2022-10-20T18:04:24.950Z,107.45
2022-10-20T18:06:54.353Z,92.65
2022-10-20T18:09:23.124Z,76.63
2022-10-20T18:11:57.187Z,104.00
2022-10-20T18:14:32.311Z,80.68
2022-10-20T18:17:07.917Z,77.63
2022-10-20T18:19:57.180Z,118.95
2022-10-20T18:22:40.587Z,96.55
2022-10-20T18:28:04.494Z,105.25
2022-10-20T18:31:22.507Z,102.40
2022-10-20T18:35:55.442Z,78.35
2022-10-20T18:38:26.020Z,84.05
2022-10-20T18:41:13.984Z,52.65
2022-10-20T18:44:01.112Z,52.35
2022-10-20T18:46:36.479Z,60.47
2022-10-20T18:49:22.016Z,90.13
2022-10-20T18:51:53.455Z,57.83
2022-10-20T18:54:24.573Z,78.65
2022-10-20T18:56:58.775Z,67.45
2022-10-20T18:59:27.249Z,73.85
2022-10-20T19:01:58.395Z,96.82
2022-10-20T19:04:28.752Z,84.53
2022-10-20T19:07:02.970Z,65.93
2022-10-20T19:09:56.731Z,90.53
2022-10-20T19:12:30.676Z,81.40
2022-10-20T19:15:09.445Z,53.10
2022-10-20T19:17:40.000Z,60.90
2022-10-20T19:20:09.082Z,44.90
2022-10-20T19:22:47.537Z,67.28
2022-10-20T19:27:58.456Z,57.97
2022-10-20T19:30:34.853Z,51.03
2022-10-20T19:33:09.743Z,37.25
2022-10-20T19:35:39.804Z,34.67
2022-10-20T19:38:11.233Z,24.08
2022-10-20T19:40:43.234Z,30.80
2022-10-20T19:43:16.624Z,48.92
2022-10-20T19:45:49.896Z,47.05
2022-10-20T19:48:56.077Z,69.78
2022-10-20T19:51:26.706Z,44.00
2022-10-20T19:53:57.564Z,28.67
2022-10-20T19:56:37.390Z,29.25
2022-10-20T19:59:11.909Z,37.25
2022-10-20T20:01:43.617Z,38.42
2022-10-20T20:04:13.041Z,46.92
2022-10-20T20:06:49.652Z,73.05
2022-10-20T20:09:19.225Z,78.70
2022-10-20T20:11:57.179Z,72.22
2022-10-20T20:14:37.816Z,104.97
2022-10-20T20:17:15.038Z,91.82
2022-10-20T20:19:52.676Z,116.25
2022-10-20T20:22:22.889Z,151.60
2022-10-20T20:24:52.960Z,101.68
2022-10-20T20:27:21.219Z,73.63
2022-10-20T20:29:52.666Z,48.53
2022-10-20T20:32:23.629Z,43.45
2022-10-20T20:35:12.026Z,57.17
2022-10-20T20:37:42.161Z,49.30
2022-10-20T20:40:15.315Z,80.63
2022-10-20T20:42:44.699Z,66.70
2022-10-20T20:45:18.045Z,45.80
2022-10-20T20:48:09.063Z,45.80
2022-10-20T20:51:00.367Z,32.03
2022-10-20T20:53:31.198Z,40.10
2022-10-20T20:56:05.963Z,16.58
2022-10-20T20:58:38.672Z,66.72
2022-10-20T21:01:18.292Z,64.90
2022-10-20T21:03:47.412Z,81.97
2022-10-20T21:06:19.215Z,44.67
2022-10-20T21:08:57.736Z,46.78
2022-10-20T21:11:34.426Z,33.45
2022-10-20T21:14:05.639Z,37.58
2022-10-20T21:16:47.806Z,41.72
2022-10-20T21:19:18.741Z,25.23
2022-10-20T21:22:21.590Z,17.65
2022-10-20T21:24:57.872Z,13.35
2022-10-20T21:27:28.238Z,14.57
2022-10-20T21:29:57.807Z,18.95
2022-10-20T21:32:27.779Z,34.95
2022-10-20T21:34:57.181Z,32.95
2022-10-20T21:37:26.880Z,35.30
2022-10-20T21:39:58.478Z,57.50
2022-10-20T21:42:28.071Z,46.15
2022-10-20T21:44:56.931Z,24.65
2022-10-20T21:47:29.721Z,35.83
2022-10-20T21:50:04.916Z,27.98
2022-10-20T21:52:42.974Z,51.67
2022-10-20T21:55:12.979Z,42.35
2022-10-20T21:57:48.111Z,41.75
2022-10-20T22:00:35.079Z,29.40
2022-10-20T22:03:09.915Z,28.65
2022-10-20T22:05:40.832Z,21.60
2022-10-20T22:08:14.471Z,26.35
2022-10-20T22:10:45.732Z,21.45
2022-10-20T22:13:24.228Z,17.27
2022-10-20T22:15:59.155Z,19.67
2022-10-20T22:18:30.426Z,30.63
2022-10-20T22:21:11.160Z,27.88
2022-10-20T22:23:56.753Z,23.77
2022-10-20T22:26:29.512Z,22.65
2022-10-20T22:29:03.349Z,19.35
2022-10-20T22:31:44.828Z,18.73
2022-10-20T22:34:44.404Z,15.98
2022-10-20T22:37:13.249Z,24.90
2022-10-20T22:39:42.446Z,16.95
2022-10-20T22:42:11.736Z,17.35
2022-10-20T22:44:45.135Z,21.33
2022-10-20T22:47:14.393Z,32.95
2022-10-20T22:49:43.911Z,41.15
2022-10-20T22:52:12.828Z,35.03
2022-10-20T22:54:43.668Z,25.08
2022-10-20T22:57:13.470Z,19.42
2022-10-20T22:59:41.766Z,14.90
2022-10-20T23:02:11.725Z,15.07
2022-10-20T23:04:43.968Z,22.77
2022-10-20T23:07:13.796Z,24.55
2022-10-20T23:09:42.323Z,27.73
2022-10-20T23:12:11.844Z,21.25
2022-10-20T23:14:43.202Z,15.70
2022-10-20T23:17:20.800Z,15.13
2022-10-20T23:19:49.832Z,18.75
2022-10-20T23:22:20.737Z,25.63
2022-10-20T23:24:51.473Z,14.13
2022-10-20T23:27:21.565Z,38.88
2022-10-20T23:29:52.568Z,37.83
2022-10-20T23:32:22.919Z,23.27
2022-10-20T23:34:54.903Z,32.88
2022-10-20T23:37:26.364Z,26.92
2022-10-20T23:39:56.315Z,38.22
2022-10-20T23:42:27.331Z,38.72
2022-10-20T23:45:03.991Z,26.10
2022-10-20T23:47:33.617Z,26.25
2022-10-20T23:50:03.328Z,17.42
2022-10-20T23:52:31.765Z,15.90
2022-10-20T23:55:01.216Z,15.38
2022-10-20T23:57:31.506Z,16.55
